Time;durP1;ratioP1;P1;durP2;ratioP2;P2;SDS_P1;SDS_P2;PMS_P1;PMS_P2;Temp;Humidity;BMP_temperature;BMP_pressure;BME280_temperature;BME280_humidity;BME280_pressure;Samples;Min_cycle;Max_cycle;Signal;HPM_P1;HPM_P2
2022/03/06 00:00:21;;;;;;;111.15;104.15;;;-2.90;97.90;;;;;;5060606;28;20205;-81
2022/03/06 00:02:48;;;;;;;123.70;115.90;;;-3.00;98.30;;;;;;5058039;28;20566;-81
2022/03/06 00:05:15;;;;;;;127.68;120.55;;;-3.00;99.40;;;;;;5058491;28;20213;-82
2022/03/06 00:07:41;;;;;;;143.35;135.70;;;-2.80;99.50;;;;;;5058465;28;20205;-82
2022/03/06 00:10:11;;;;;;;163.20;153.68;;;-2.80;99.90;;;;;;5071336;28;20199;-81
2022/03/06 00:12:37;;;;;;;139.27;131.05;;;-2.70;99.90;;;;;;5077607;28;20192;-82
2022/03/06 00:15:05;;;;;;;119.45;111.35;;;-2.70;99.90;;;;;;5065913;28;20597;-80
2022/03/06 00:17:32;;;;;;;101.05;94.75;;;-2.80;99.50;;;;;;5057468;28;20239;-80
2022/03/06 00:20:00;;;;;;;88.57;81.93;;;-2.80;99.40;;;;;;5066601;28;20688;-82
2022/03/06 00:22:27;;;;;;;85.03;78.72;;;-2.80;99.50;;;;;;5077569;28;20193;-81
2022/03/06 00:24:56;;;;;;;74.82;68.90;;;-3.00;99.40;;;;;;5075891;28;20299;-82
2022/03/06 00:27:24;;;;;;;103.82;97.40;;;-2.90;99.50;;;;;;5077332;28;20227;-81
2022/03/06 00:29:51;;;;;;;137.80;129.38;;;-2.90;99.90;;;;;;5066104;28;20193;-81
2022/03/06 00:32:18;;;;;;;132.90;125.30;;;-3.00;99.90;;;;;;5057001;28;20677;-81
2022/03/06 00:34:45;;;;;;;117.80;110.65;;;-3.00;99.90;;;;;;5065606;28;20215;-82
2022/03/06 00:37:11;;;;;;;114.80;107.93;;;-3.00;99.90;;;;;;5077049;28;20765;-82
2022/03/06 00:39:38;;;;;;;146.85;139.07;;;-3.00;99.90;;;;;;5075287;28;20223;-81
2022/03/06 00:42:05;;;;;;;168.75;159.10;;;-2.80;99.90;;;;;;5076944;28;20195;-82
2022/03/06 00:44:33;;;;;;;156.85;148.15;;;-2.80;99.90;;;;;;5066805;28;20200;-82
2022/03/06 00:47:00;;;;;;;144.63;136.02;;;-2.80;99.90;;;;;;5057287;28;20204;-82
2022/03/06 00:49:27;;;;;;;136.50;129.02;;;-2.90;99.90;;;;;;5064490;28;20200;-82
2022/03/06 00:51:53;;;;;;;123.70;116.55;;;-2.90;99.90;;;;;;5077352;28;20204;-81
2022/03/06 00:54:20;;;;;;;131.80;123.47;;;-2.90;99.90;;;;;;5069784;28;20196;-82
2022/03/06 00:56:47;;;;;;;126.30;118.40;;;-2.90;99.90;;;;;;5056609;28;20216;-81
2022/03/06 00:59:14;;;;;;;150.70;142.15;;;-3.00;99.90;;;;;;5061692;28;20200;-82
2022/03/06 01:01:43;;;;;;;130.10;123.05;;;-3.10;99.90;;;;;;5076888;28;20211;-82
2022/03/06 01:04:10;;;;;;;157.00;147.82;;;-3.10;99.90;;;;;;5071378;28;20185;-81
2022/03/06 01:06:36;;;;;;;150.85;142.73;;;-3.00;99.90;;;;;;5055995;28;20220;-82
2022/03/06 01:09:04;;;;;;;130.35;122.88;;;-3.00;99.90;;;;;;5058916;28;20188;-82
2022/03/06 01:11:31;;;;;;;122.68;115.32;;;-3.00;99.90;;;;;;5076191;28;20192;-82
2022/03/06 01:13:58;;;;;;;150.90;143.05;;;-3.10;99.90;;;;;;5075115;28;20193;-83
2022/03/06 01:16:24;;;;;;;163.38;154.57;;;-3.00;99.90;;;;;;5076404;28;20238;-82
2022/03/06 01:18:52;;;;;;;181.85;172.30;;;-3.10;99.90;;;;;;5074053;28;20204;-81
2022/03/06 01:21:19;;;;;;;176.45;167.48;;;-3.10;99.90;;;;;;5065503;28;20188;-82
2022/03/06 01:23:46;;;;;;;172.10;163.00;;;-3.10;99.90;;;;;;5076683;28;20192;-82
2022/03/06 01:26:13;;;;;;;248.40;236.52;;;-3.20;99.90;;;;;;5075690;28;20211;-81
2022/03/06 01:28:39;;;;;;;242.27;230.68;;;-3.20;99.90;;;;;;5072132;28;20193;-81
2022/03/06 01:31:06;;;;;;;216.57;205.85;;;-3.20;99.90;;;;;;5055960;28;20196;-81
2022/03/06 01:33:33;;;;;;;249.43;238.07;;;-3.10;99.90;;;;;;5058510;28;20205;-81
2022/03/06 01:36:01;;;;;;;229.15;218.80;;;-3.10;99.90;;;;;;5075751;28;20220;-82
2022/03/06 01:38:28;;;;;;;319.55;304.92;;;-3.20;99.90;;;;;;5074186;28;20204;-81
2022/03/06 01:40:54;;;;;;;426.50;406.55;;;-3.20;99.90;;;;;;5056438;28;20204;-83
2022/03/06 01:43:21;;;;;;;366.55;349.60;;;-3.20;99.90;;;;;;5055086;28;20205;-79
2022/03/06 01:45:48;;;;;;;355.27;338.77;;;-3.30;99.90;;;;;;5058733;28;20225;-81
2022/03/06 01:48:15;;;;;;;338.45;322.50;;;-3.40;99.90;;;;;;5059639;28;20197;-81
2022/03/06 01:50:42;;;;;;;298.33;283.67;;;-3.40;99.90;;;;;;5058341;28;20205;-82
2022/03/06 01:53:12;;;;;;;264.08;251.10;;;-3.50;99.90;;;;;;5059310;28;20203;-82
2022/03/06 01:55:39;;;;;;;454.13;433.98;;;-3.60;99.90;;;;;;5058870;28;20220;-81
2022/03/06 01:58:07;;;;;;;483.80;460.65;;;-3.50;99.90;;;;;;5057742;28;20559;-80
2022/03/06 02:00:37;;;;;;;384.40;365.25;;;-3.50;99.90;;;;;;5059040;28;20205;-81
2022/03/06 02:03:04;;;;;;;382.83;363.92;;;-3.50;99.90;;;;;;5058767;28;20189;-83
2022/03/06 02:05:31;;;;;;;362.83;345.08;;;-3.60;99.90;;;;;;5058897;28;20213;-81
2022/03/06 02:07:58;;;;;;;375.88;357.67;;;-3.60;99.90;;;;;;5057578;28;20196;-81
2022/03/06 02:10:26;;;;;;;323.20;307.08;;;-3.70;99.90;;;;;;5057571;28;20205;-82
2022/03/06 02:12:53;;;;;;;298.83;283.05;;;-3.70;99.90;;;;;;5056899;28;20204;-83
2022/03/06 02:15:20;;;;;;;293.38;277.83;;;-3.80;99.90;;;;;;5057943;28;20236;-81
2022/03/06 02:17:47;;;;;;;344.92;327.48;;;-3.80;99.90;;;;;;5057355;28;20223;-81
2022/03/06 02:20:15;;;;;;;309.42;292.50;;;-3.80;99.90;;;;;;5057080;28;20204;-82
2022/03/06 02:22:45;;;;;;;366.90;347.92;;;-3.90;99.90;;;;;;5058265;28;20220;-81
2022/03/06 02:25:15;;;;;;;448.38;426.08;;;-3.80;99.90;;;;;;5057790;28;20220;-78
2022/03/06 02:27:42;;;;;;;470.13;446.40;;;-3.90;99.90;;;;;;5057694;28;20200;-81
2022/03/06 02:30:11;;;;;;;506.45;480.17;;;-3.90;99.90;;;;;;5057503;28;20287;-82
2022/03/06 02:32:39;;;;;;;501.48;474.70;;;-3.90;99.90;;;;;;5057503;28;20189;-81
2022/03/06 02:35:08;;;;;;;554.45;523.70;;;-3.90;99.90;;;;;;5057378;28;20217;-81
2022/03/06 02:37:35;;;;;;;536.95;506.95;;;-3.80;99.90;;;;;;5057663;28;20213;-81
2022/03/06 02:40:05;;;;;;;516.75;488.95;;;-3.80;99.90;;;;;;5057198;28;20207;-81
2022/03/06 02:42:34;;;;;;;499.98;472.33;;;-3.70;99.90;;;;;;5056582;28;20192;-82
2022/03/06 02:45:07;;;;;;;435.25;411.88;;;-3.80;99.90;;;;;;5058089;28;20228;-81
2022/03/06 02:47:34;;;;;;;385.00;363.63;;;-3.80;99.90;;;;;;5056872;28;20201;-81
2022/03/06 02:50:02;;;;;;;384.00;363.08;;;-3.90;99.90;;;;;;5055887;28;20220;-79
2022/03/06 02:52:29;;;;;;;383.27;362.45;;;-3.90;99.90;;;;;;5056907;28;20254;-81
2022/03/06 02:54:56;;;;;;;370.35;350.55;;;-3.90;99.90;;;;;;5056686;28;20220;-82
2022/03/06 02:57:24;;;;;;;394.58;373.73;;;-3.80;99.90;;;;;;5056485;28;20711;-81
2022/03/06 02:59:51;;;;;;;378.42;357.50;;;-3.90;99.90;;;;;;5056713;28;20205;-81
2022/03/06 03:02:17;;;;;;;318.45;302.05;;;-3.90;99.90;;;;;;5056665;28;20200;-83
2022/03/06 03:04:44;;;;;;;515.92;489.70;;;-3.90;99.90;;;;;;5056857;28;20217;-81
2022/03/06 03:07:11;;;;;;;561.08;531.30;;;-4.00;99.90;;;;;;5056259;28;20197;-82
2022/03/06 03:09:38;;;;;;;490.15;464.40;;;-4.00;99.90;;;;;;5057133;28;20201;-82
2022/03/06 03:12:06;;;;;;;502.50;476.20;;;-4.00;99.90;;;;;;5055957;28;20197;-81
2022/03/06 03:14:35;;;;;;;466.75;443.13;;;-3.90;99.90;;;;;;5056046;28;20578;-81
2022/03/06 03:17:03;;;;;;;468.73;443.42;;;-4.00;99.90;;;;;;5056575;28;20212;-81
2022/03/06 03:19:30;;;;;;;597.55;565.60;;;-3.90;99.90;;;;;;5055401;28;20197;-80
2022/03/06 03:22:06;;;;;;;565.47;536.15;;;-3.80;99.90;;;;;;5056021;28;20189;-81
2022/03/06 03:24:32;;;;;;;546.20;517.55;;;-3.80;99.90;;;;;;5055857;28;20730;-81
2022/03/06 03:26:59;;;;;;;566.22;536.50;;;-3.90;99.90;;;;;;5055739;28;20189;-81
2022/03/06 03:29:26;;;;;;;617.70;584.10;;;-3.90;99.90;;;;;;5055439;28;20220;-83
2022/03/06 03:31:54;;;;;;;581.75;550.30;;;-3.90;99.90;;;;;;5055505;28;20208;-78
2022/03/06 03:34:21;;;;;;;583.22;553.08;;;-4.00;99.90;;;;;;5055492;28;20645;-81
2022/03/06 03:36:47;;;;;;;592.15;560.95;;;-4.00;99.90;;;;;;5059091;28;20209;-80
2022/03/06 03:39:14;;;;;;;618.13;585.42;;;-4.00;99.90;;;;;;5051692;28;20201;-81
2022/03/06 03:41:41;;;;;;;520.75;494.90;;;-3.90;99.90;;;;;;5054306;28;20655;-82
2022/03/06 03:44:08;;;;;;;655.70;619.53;;;-3.90;99.90;;;;;;5055033;28;20197;-80
2022/03/06 03:46:34;;;;;;;608.25;576.30;;;-3.90;99.90;;;;;;5054467;28;20240;-82
2022/03/06 03:49:03;;;;;;;557.55;528.58;;;-3.80;99.90;;;;;;5055126;28;20215;-80
2022/03/06 03:51:29;;;;;;;561.20;532.60;;;-3.70;99.90;;;;;;5053973;28;20197;-81
2022/03/06 03:53:56;;;;;;;561.20;529.95;;;-3.80;99.90;;;;;;5058300;28;20203;-82
2022/03/06 03:56:23;;;;;;;601.67;570.15;;;-3.70;99.90;;;;;;5079569;28;20220;-79
2022/03/06 03:58:50;;;;;;;606.92;573.92;;;-3.60;99.90;;;;;;5081506;28;20197;-82
2022/03/06 04:01:18;;;;;;;632.53;598.92;;;-3.50;99.90;;;;;;5063826;28;20189;-82
2022/03/06 04:03:45;;;;;;;618.83;585.22;;;-3.50;99.90;;;;;;5056171;28;20200;-81
2022/03/06 04:06:13;;;;;;;616.90;583.45;;;-3.30;99.90;;;;;;5054896;28;20216;-81
2022/03/06 04:08:40;;;;;;;550.78;521.88;;;-3.20;99.90;;;;;;5053756;28;20193;-83
2022/03/06 04:11:07;;;;;;;571.92;542.55;;;-3.20;99.90;;;;;;5069311;28;20208;-82
2022/03/06 04:13:34;;;;;;;527.50;500.33;;;-3.10;99.90;;;;;;5074711;28;20203;-82
2022/03/06 04:16:00;;;;;;;519.58;492.95;;;-3.10;99.90;;;;;;5059137;28;20251;-82
2022/03/06 04:18:27;;;;;;;437.40;415.25;;;-3.00;99.90;;;;;;5053436;28;20592;-81
2022/03/06 04:20:54;;;;;;;411.40;390.63;;;-3.10;99.90;;;;;;5067445;28;20218;-82
2022/03/06 04:23:22;;;;;;;425.77;404.75;;;-3.10;99.90;;;;;;5073946;28;20196;-83
2022/03/06 04:25:49;;;;;;;402.67;383.50;;;-3.00;99.90;;;;;;5064686;28;20801;-82
2022/03/06 04:28:16;;;;;;;389.90;369.85;;;-2.90;99.90;;;;;;5073996;28;20192;-81
2022/03/06 04:30:43;;;;;;;366.40;347.30;;;-2.80;99.90;;;;;;5073992;28;20192;-82
2022/03/06 04:33:09;;;;;;;349.60;332.15;;;-2.80;99.90;;;;;;5066681;28;20189;-81
2022/03/06 04:35:36;;;;;;;319.80;303.10;;;-2.70;99.90;;;;;;5067382;28;20218;-86
2022/03/06 04:38:03;;;;;;;302.85;287.40;;;-2.70;99.90;;;;;;5058622;28;20292;-84
2022/03/06 04:40:31;;;;;;;309.25;293.85;;;-2.70;99.90;;;;;;5057114;28;20193;-81
2022/03/06 04:42:58;;;;;;;313.33;297.02;;;-2.60;99.90;;;;;;5068150;28;20665;-82
2022/03/06 04:45:26;;;;;;;379.90;359.40;;;-2.50;99.90;;;;;;5056808;28;20208;-82
2022/03/06 04:47:53;;;;;;;337.80;320.35;;;-2.50;99.90;;;;;;5067184;28;20227;-82
2022/03/06 04:50:20;;;;;;;317.10;300.70;;;-2.30;99.90;;;;;;5054665;28;20681;-82
2022/03/06 04:52:47;;;;;;;310.15;295.08;;;-2.40;99.90;;;;;;5062725;28;20675;-80
2022/03/06 04:55:14;;;;;;;330.45;314.40;;;-2.40;99.90;;;;;;5072261;28;20212;-82
2022/03/06 04:57:45;;;;;;;278.23;264.55;;;-2.50;99.90;;;;;;5070877;28;20885;-82
2022/03/06 05:00:14;;;;;;;253.90;240.60;;;-2.60;99.90;;;;;;5069004;28;20212;-82
2022/03/06 05:02:40;;;;;;;226.43;214.43;;;-2.60;99.90;;;;;;5064681;28;20649;-82
2022/03/06 05:05:09;;;;;;;244.10;232.18;;;-2.60;99.90;;;;;;5073441;28;20219;-81
2022/03/06 05:07:36;;;;;;;340.27;325.00;;;-2.60;99.90;;;;;;5072479;28;20218;-83
2022/03/06 05:10:07;;;;;;;291.55;277.67;;;-2.50;99.90;;;;;;5071963;28;20189;-81
2022/03/06 05:12:34;;;;;;;266.98;253.75;;;-2.60;99.90;;;;;;5063951;28;20189;-82
2022/03/06 05:15:04;;;;;;;278.00;265.38;;;-2.60;99.90;;;;;;5065773;28;20223;-81
2022/03/06 05:17:30;;;;;;;276.40;263.10;;;-2.60;99.90;;;;;;5061223;28;20224;-82
2022/03/06 05:19:57;;;;;;;268.42;256.05;;;-2.60;99.90;;;;;;5076388;28;20200;-82
2022/03/06 05:22:24;;;;;;;229.77;217.80;;;-2.70;99.90;;;;;;5070450;28;20271;-81
2022/03/06 05:24:51;;;;;;;292.75;278.58;;;-2.70;99.90;;;;;;5057522;28;20572;-83
2022/03/06 05:27:17;;;;;;;283.48;270.42;;;-2.60;99.90;;;;;;5056977;28;20197;-81
2022/03/06 05:29:44;;;;;;;328.42;313.77;;;-2.70;99.90;;;;;;5058290;28;20201;-81
2022/03/06 05:32:12;;;;;;;468.65;449.17;;;-2.80;99.90;;;;;;5066279;28;20188;-84
2022/03/06 05:34:39;;;;;;;517.63;495.23;;;-2.60;99.90;;;;;;5072982;28;20201;-82
2022/03/06 05:37:05;;;;;;;463.50;444.10;;;-2.60;99.90;;;;;;5065420;28;20208;-82
2022/03/06 05:39:32;;;;;;;441.15;421.95;;;-2.80;99.90;;;;;;5071606;28;20393;-82
2022/03/06 05:41:59;;;;;;;445.83;422.50;;;-2.80;99.90;;;;;;5077040;28;20581;-81
2022/03/06 05:44:26;;;;;;;420.42;400.80;;;-2.90;99.90;;;;;;5072449;28;20656;-83
2022/03/06 05:46:52;;;;;;;390.85;373.23;;;-3.00;99.90;;;;;;5067858;28;20204;-82
2022/03/06 05:49:21;;;;;;;367.73;350.70;;;-2.90;99.90;;;;;;5057308;28;20193;-82
2022/03/06 05:51:47;;;;;;;384.85;367.92;;;-3.00;99.90;;;;;;5073727;28;20564;-82
2022/03/06 05:54:14;;;;;;;347.58;331.50;;;-3.00;99.90;;;;;;5075549;28;20197;-82
2022/03/06 05:56:41;;;;;;;379.88;361.98;;;-2.90;99.90;;;;;;5061982;28;20213;-82
2022/03/06 05:59:08;;;;;;;386.08;368.77;;;-3.00;99.90;;;;;;5072885;28;20220;-81
2022/03/06 06:01:35;;;;;;;350.98;335.50;;;-3.00;99.90;;;;;;5062167;28;20188;-84
2022/03/06 06:04:09;;;;;;;471.00;449.73;;;-3.40;99.90;;;;;;5078571;28;20199;-83
2022/03/06 06:06:38;;;;;;;432.45;413.88;;;-3.00;99.90;;;;;;5067336;28;20212;-82
2022/03/06 06:09:04;;;;;;;573.35;547.45;;;-3.10;99.90;;;;;;5058610;28;20217;-82
2022/03/06 06:11:31;;;;;;;595.67;567.25;;;-3.10;99.90;;;;;;5071462;28;20192;-82
2022/03/06 06:13:58;;;;;;;514.38;490.23;;;-3.20;99.90;;;;;;5058954;28;20196;-81
2022/03/06 06:16:25;;;;;;;478.67;455.30;;;-3.30;99.90;;;;;;5078428;28;20224;-83
2022/03/06 06:18:52;;;;;;;593.15;563.45;;;-3.30;99.90;;;;;;5066058;28;20216;-82
2022/03/06 06:21:19;;;;;;;652.17;618.28;;;-3.40;99.90;;;;;;5071337;28;20185;-81
2022/03/06 06:23:47;;;;;;;668.15;633.00;;;-3.20;99.90;;;;;;5070732;28;20604;-82
2022/03/06 06:26:14;;;;;;;674.33;638.38;;;-3.10;99.90;;;;;;5071862;28;20216;-80
2022/03/06 06:28:41;;;;;;;601.47;569.95;;;-3.10;99.90;;;;;;5057216;28;20201;-81
2022/03/06 06:31:08;;;;;;;536.92;510.55;;;-3.20;99.90;;;;;;5056890;28;20195;-81
2022/03/06 06:33:36;;;;;;;537.92;510.73;;;-3.30;99.90;;;;;;5058508;28;20657;-80
2022/03/06 06:36:03;;;;;;;540.28;514.00;;;-3.20;99.90;;;;;;5068204;28;20473;-82
2022/03/06 06:38:30;;;;;;;587.65;558.40;;;-3.20;99.90;;;;;;5061008;28;20212;-82
2022/03/06 06:40:58;;;;;;;556.17;527.97;;;-3.20;99.90;;;;;;5056727;28;20677;-84
2022/03/06 06:43:25;;;;;;;523.95;497.65;;;-3.10;99.90;;;;;;5063505;28;20684;-82
2022/03/06 06:45:51;;;;;;;474.50;450.75;;;-3.10;99.90;;;;;;5067014;28;20223;-82
2022/03/06 06:48:18;;;;;;;610.08;579.75;;;-3.10;99.90;;;;;;5059950;28;20657;-81
2022/03/06 06:50:45;;;;;;;553.17;526.53;;;-3.00;99.90;;;;;;5059632;28;20189;-82
2022/03/06 06:53:12;;;;;;;496.10;471.38;;;-3.00;99.90;;;;;;5068348;28;20600;-81
2022/03/06 06:55:38;;;;;;;450.08;428.10;;;-2.90;99.90;;;;;;5071692;28;20216;-82
2022/03/06 06:58:06;;;;;;;546.10;519.78;;;-3.00;99.90;;;;;;5054153;28;20227;-81
2022/03/06 07:00:34;;;;;;;429.88;413.02;;;-2.80;99.90;;;;;;5067573;28;20200;-81
2022/03/06 07:03:01;;;;;;;312.40;300.85;;;-2.80;99.90;;;;;;5067830;28;20280;-84
2022/03/06 07:05:28;;;;;;;445.67;429.48;;;-2.60;99.90;;;;;;5054495;28;20224;-79
2022/03/06 07:07:54;;;;;;;606.80;579.67;;;-2.40;99.90;;;;;;5057012;28;20188;-80
2022/03/06 07:10:22;;;;;;;577.97;551.53;;;-2.20;99.90;;;;;;5059762;28;20207;-81
2022/03/06 07:12:51;;;;;;;407.60;392.30;;;-2.00;99.90;;;;;;5055248;28;20606;-81
2022/03/06 07:15:19;;;;;;;353.42;340.10;;;-1.90;99.90;;;;;;5054294;28;20224;-82
2022/03/06 07:17:46;;;;;;;315.67;303.52;;;-1.70;99.90;;;;;;5058074;28;20683;-82
2022/03/06 07:20:13;;;;;;;389.65;374.77;;;-1.60;99.90;;;;;;5071212;28;20219;-81
2022/03/06 07:22:40;;;;;;;315.02;302.30;;;-1.50;99.90;;;;;;5073101;28;20592;-81
2022/03/06 07:25:07;;;;;;;214.10;205.05;;;-1.40;99.90;;;;;;5059062;28;20212;-82
2022/03/06 07:27:34;;;;;;;250.75;240.07;;;-1.40;99.90;;;;;;5069896;28;20196;-82
2022/03/06 07:30:00;;;;;;;328.70;315.70;;;-1.20;99.90;;;;;;5060657;28;20680;-82
2022/03/06 07:32:28;;;;;;;400.85;384.23;;;-1.20;99.90;;;;;;5056369;28;20197;-82
2022/03/06 07:34:55;;;;;;;387.05;371.70;;;-1.10;99.90;;;;;;5056817;28;20216;-82
2022/03/06 07:37:22;;;;;;;528.60;505.83;;;-1.00;99.90;;;;;;5054727;28;20208;-82
2022/03/06 07:39:49;;;;;;;491.17;469.88;;;-1.00;99.90;;;;;;5065393;28;20204;-82
2022/03/06 07:42:16;;;;;;;513.00;491.20;;;-0.90;99.90;;;;;;5075043;28;20200;-82
2022/03/06 07:44:45;;;;;;;515.90;492.80;;;-1.00;99.90;;;;;;5068953;28;20217;-82
2022/03/06 07:47:12;;;;;;;566.58;541.17;;;-1.00;99.90;;;;;;5073056;28;20204;-80
2022/03/06 07:49:40;;;;;;;691.47;654.95;;;-1.00;99.90;;;;;;5053436;28;20198;-82
2022/03/06 07:52:07;;;;;;;703.75;667.95;;;-0.80;99.90;;;;;;5071953;28;20196;-81
2022/03/06 07:54:34;;;;;;;726.42;687.22;;;-0.70;99.90;;;;;;5059826;28;20196;-83
2022/03/06 07:57:00;;;;;;;700.08;663.35;;;-0.50;99.90;;;;;;5063117;28;20196;-82
2022/03/06 07:59:28;;;;;;;477.37;457.30;;;-0.40;99.90;;;;;;5068001;28;20205;-81
2022/03/06 08:01:55;;;;;;;348.38;333.33;;;-0.20;99.90;;;;;;5064118;28;20485;-81
2022/03/06 08:04:22;;;;;;;355.10;339.27;;;-0.20;99.90;;;;;;5054294;28;20200;-83
2022/03/06 08:06:50;;;;;;;210.30;200.87;;;-0.10;99.90;;;;;;5062945;28;20816;-81
2022/03/06 08:09:17;;;;;;;194.60;184.17;;;0.10;99.90;;;;;;5054473;28;20485;-82
2022/03/06 08:11:44;;;;;;;120.53;110.93;;;0.20;99.90;;;;;;5055522;28;20462;-82
2022/03/06 08:14:10;;;;;;;116.47;108.47;;;0.20;99.90;;;;;;5053632;28;20833;-81
2022/03/06 08:16:37;;;;;;;82.63;75.72;;;0.30;99.90;;;;;;5069050;28;20485;-82
2022/03/06 08:19:04;;;;;;;62.87;56.53;;;0.40;99.90;;;;;;5070139;28;20688;-82
2022/03/06 08:21:31;;;;;;;46.77;37.93;;;0.50;99.60;;;;;;5053217;28;20464;-82
2022/03/06 08:23:59;;;;;;;44.23;33.23;;;0.80;99.10;;;;;;5071550;28;20959;-81
2022/03/06 08:26:26;;;;;;;56.23;50.77;;;0.90;97.00;;;;;;5053753;28;20468;-80
2022/03/06 08:28:53;;;;;;;58.87;41.87;;;1.10;99.40;;;;;;5056357;28;20451;-81
2022/03/06 08:31:20;;;;;;;54.45;36.75;;;1.30;96.30;;;;;;5055241;28;20451;-80
2022/03/06 08:33:47;;;;;;;42.33;28.37;;;1.40;95.80;;;;;;5060174;28;20196;-80
2022/03/06 08:36:14;;;;;;;56.03;33.53;;;1.70;93.70;;;;;;5072946;28;20474;-80
2022/03/06 08:38:41;;;;;;;49.00;32.40;;;1.90;94.20;;;;;;5069089;28;20481;-81
2022/03/06 08:41:09;;;;;;;51.57;32.17;;;2.00;93.10;;;;;;5069042;28;20461;-81
2022/03/06 08:43:35;;;;;;;47.10;29.57;;;2.10;88.70;;;;;;5072481;28;20458;-81
2022/03/06 08:46:03;;;;;;;41.77;27.60;;;2.20;86.40;;;;;;5072169;28;20473;-78
2022/03/06 08:48:30;;;;;;;42.03;26.77;;;2.40;86.60;;;;;;5071805;28;20446;-81
2022/03/06 08:50:56;;;;;;;54.30;27.50;;;2.40;84.60;;;;;;5055439;28;20459;-82
2022/03/06 08:53:24;;;;;;;48.90;28.77;;;2.40;80.90;;;;;;5069847;28;20462;-81
2022/03/06 08:55:51;;;;;;;41.17;26.93;;;2.40;81.60;;;;;;5062972;28;20550;-81
2022/03/06 08:58:19;;;;;;;42.00;26.53;;;2.40;77.70;;;;;;5073652;28;20455;-80
2022/03/06 09:00:45;;;;;;;45.40;28.93;;;2.40;77.60;;;;;;5075328;28;20442;-83
2022/03/06 09:03:13;;;;;;;44.57;27.80;;;2.50;80.40;;;;;;5080446;28;20522;-80
2022/03/06 09:05:40;;;;;;;52.00;31.03;;;2.60;78.40;;;;;;5078575;28;20470;-84
2022/03/06 09:08:09;;;;;;;49.57;28.53;;;2.90;78.50;;;;;;5056976;28;20454;-81
2022/03/06 09:10:36;;;;;;;38.33;25.43;;;3.20;72.80;;;;;;5061559;28;20452;-82
2022/03/06 09:13:03;;;;;;;33.27;23.37;;;3.50;69.60;;;;;;5082923;28;20480;-81
2022/03/06 09:15:31;;;;;;;41.50;25.30;;;3.50;66.10;;;;;;5081845;28;20485;-81
2022/03/06 09:17:58;;;;;;;40.57;24.20;;;3.50;63.90;;;;;;5075297;28;20445;-81
2022/03/06 09:20:26;;;;;;;38.73;23.80;;;3.60;64.60;;;;;;5079732;28;20470;-81
2022/03/06 09:22:53;;;;;;;42.00;27.03;;;3.60;64.60;;;;;;5081754;28;20450;-82
2022/03/06 09:25:20;;;;;;;47.33;23.80;;;3.80;64.70;;;;;;5070273;28;20471;-82
2022/03/06 09:27:47;;;;;;;43.70;27.77;;;3.80;62.30;;;;;;5081617;28;20454;-83
2022/03/06 09:30:14;;;;;;;42.60;26.53;;;3.90;63.30;;;;;;5081827;28;21001;-82
2022/03/06 09:32:42;;;;;;;43.30;24.43;;;3.80;62.90;;;;;;5089720;28;20441;-82
2022/03/06 09:35:10;;;;;;;29.30;18.00;;;4.10;65.00;;;;;;5092481;28;20472;-81
2022/03/06 09:37:38;;;;;;;38.20;26.03;;;4.10;60.40;;;;;;5083435;28;20470;-82
2022/03/06 09:40:05;;;;;;;28.20;17.00;;;4.10;61.90;;;;;;5078668;28;20475;-84
2022/03/06 09:42:33;;;;;;;40.70;24.50;;;4.20;57.00;;;;;;5087880;28;20446;-82
2022/03/06 09:45:04;;;;;;;33.50;20.90;;;4.20;57.00;;;;;;5084691;28;20523;-81
2022/03/06 09:47:31;;;;;;;37.03;23.27;;;4.20;54.30;;;;;;5072990;28;20451;-82
2022/03/06 09:50:01;;;;;;;41.13;24.83;;;4.40;56.30;;;;;;5069103;28;20446;-82
2022/03/06 09:52:28;;;;;;;38.07;22.47;;;4.30;53.10;;;;;;5080227;28;20461;-82
2022/03/06 09:54:56;;;;;;;35.43;22.97;;;4.40;54.70;;;;;;5060982;28;20471;-83
2022/03/06 09:57:23;;;;;;;34.20;22.23;;;4.30;53.80;;;;;;5064497;28;20455;-78
2022/03/06 09:59:50;;;;;;;35.60;21.30;;;4.20;56.90;;;;;;5059149;28;20475;-81
2022/03/06 10:02:17;;;;;;;28.70;18.03;;;4.40;51.80;;;;;;5060828;28;20451;-82
2022/03/06 10:04:46;;;;;;;34.93;20.67;;;4.50;53.50;;;;;;5062609;28;20464;-81
2022/03/06 10:07:15;;;;;;;37.00;22.20;;;4.80;50.70;;;;;;5067281;28;20455;-82
2022/03/06 10:09:46;;;;;;;36.40;22.97;;;5.00;46.90;;;;;;5065282;28;20515;-82
2022/03/06 10:12:23;;;;;;;38.03;22.70;;;5.30;46.20;;;;;;5066755;28;20838;-81
2022/03/06 10:18:11;;;;;;;31.73;20.90;;;5.90;41.10;;;;;;5054073;28;20439;-78
2022/03/06 10:20:38;;;;;;;34.80;22.07;;;6.20;39.10;;;;;;5066251;28;20475;-82
2022/03/06 10:23:24;;;;;;;35.60;24.10;;;6.10;38.90;;;;;;5066258;28;20454;-81
2022/03/06 10:26:00;;;;;;;32.87;19.60;;;5.80;35.40;;;;;;5066930;28;20521;-82
2022/03/06 10:28:27;;;;;;;36.20;23.27;;;5.80;36.20;;;;;;5066288;28;20455;-82
2022/03/06 10:30:54;;;;;;;33.67;22.10;;;5.90;36.60;;;;;;5067338;28;20450;-83
2022/03/06 10:33:23;;;;;;;34.50;20.90;;;5.90;38.80;;;;;;5066334;28;20456;-81
2022/03/06 10:35:51;;;;;;;31.90;22.50;;;5.90;38.60;;;;;;5066624;28;20471;-82
2022/03/06 10:38:21;;;;;;;34.57;21.20;;;6.00;37.00;;;;;;5065314;28;20451;-82
2022/03/06 10:40:49;;;;;;;34.80;20.20;;;6.00;33.60;;;;;;5066456;28;20483;-81
2022/03/06 10:43:21;;;;;;;32.03;22.00;;;5.90;35.00;;;;;;5066642;28;20455;-81
2022/03/06 10:45:48;;;;;;;31.57;19.07;;;6.20;37.20;;;;;;5066413;28;20471;-82
2022/03/06 10:48:15;;;;;;;32.07;19.27;;;6.30;35.20;;;;;;5065801;28;20439;-82
2022/03/06 10:50:42;;;;;;;21.50;16.13;;;6.40;34.50;;;;;;5065623;28;20451;-81
2022/03/06 10:53:20;;;;;;;27.73;20.20;;;6.70;32.00;;;;;;5065917;28;20481;-82
2022/03/06 10:55:47;;;;;;;33.90;18.20;;;6.90;29.10;;;;;;5065532;28;20853;-81
2022/03/06 10:58:14;;;;;;;32.00;20.70;;;7.10;28.70;;;;;;5066057;28;20542;-81
2022/03/06 11:00:41;;;;;;;27.87;19.47;;;7.30;28.40;;;;;;5064413;28;21012;-83
2022/03/06 11:03:11;;;;;;;30.93;21.53;;;7.60;24.40;;;;;;5066295;28;20455;-82
2022/03/06 11:05:41;;;;;;;26.00;16.90;;;8.20;24.70;;;;;;5065461;28;20477;-82
2022/03/06 11:08:11;;;;;;;23.33;15.57;;;8.40;25.30;;;;;;5065260;28;20458;-79
2022/03/06 11:10:43;;;;;;;36.47;21.37;;;9.00;22.20;;;;;;5066780;28;20480;-82
2022/03/06 11:13:12;;;;;;;23.63;17.70;;;9.10;24.20;;;;;;5066636;28;20488;-83
2022/03/06 11:15:39;;;;;;;22.50;15.33;;;9.20;21.70;;;;;;5065969;28;20917;-82
2022/03/06 11:18:06;;;;;;;29.03;20.10;;;8.70;20.50;;;;;;5065671;28;20982;-81
2022/03/06 11:20:34;;;;;;;28.80;20.00;;;8.80;24.30;;;;;;5066545;28;20448;-81
2022/03/06 11:23:08;;;;;;;25.00;17.53;;;9.00;21.10;;;;;;5066640;28;20462;-82
2022/03/06 11:25:43;;;;;;;32.03;20.00;;;8.70;21.60;;;;;;5067133;28;20467;-83
2022/03/06 11:28:22;;;;;;;27.60;19.73;;;8.70;19.70;;;;;;5066627;28;20477;-80
2022/03/06 11:30:49;;;;;;;31.90;23.07;;;8.70;22.10;;;;;;5066051;28;20490;-82
2022/03/06 11:33:20;;;;;;;28.90;20.60;;;8.70;21.30;;;;;;5067030;28;20447;-82
2022/03/06 11:35:46;;;;;;;29.10;22.00;;;8.40;22.20;;;;;;5066696;28;20471;-82
2022/03/06 11:38:17;;;;;;;24.70;18.87;;;8.40;23.20;;;;;;5066706;28;20455;-82
2022/03/06 11:40:50;;;;;;;24.90;18.80;;;8.70;21.10;;;;;;5066267;28;20456;-81
2022/03/06 11:43:42;;;;;;;24.03;14.97;;;8.90;22.70;;;;;;5065849;28;20451;-81
2022/03/06 11:46:16;;;;;;;26.73;21.37;;;8.40;18.50;;;;;;5066102;28;20471;-82
2022/03/06 11:49:13;;;;;;;27.70;15.80;;;8.60;19.60;;;;;;5064187;28;20455;-82
2022/03/06 11:51:45;;;;;;;27.63;17.33;;;8.70;19.20;;;;;;5065276;28;20443;-81
2022/03/06 11:54:15;;;;;;;28.23;19.13;;;8.40;18.00;;;;;;5066316;28;20505;-82
2022/03/06 11:56:55;;;;;;;26.07;16.40;;;8.60;19.70;;;;;;5066295;28;20467;-82
2022/03/06 11:59:46;;;;;;;22.50;15.50;;;8.40;17.30;;;;;;5065558;28;20453;-82
2022/03/06 12:02:19;;;;;;;28.23;18.03;;;8.40;17.40;;;;;;5065876;28;20455;-82
2022/03/06 12:04:47;;;;;;;22.97;16.27;;;8.50;12.90;;;;;;5066593;28;20476;-81
2022/03/06 12:07:17;;;;;;;27.63;17.03;;;9.00;12.00;;;;;;5067029;28;20659;-82
2022/03/06 12:09:45;;;;;;;25.93;18.67;;;9.80;5.60;;;;;;5065830;28;20479;-81
2022/03/06 12:12:16;;;;;;;25.23;17.03;;;10.60;6.40;;;;;;5066395;28;20555;-82
2022/03/06 12:14:44;;;;;;;23.97;17.37;;;10.70;1.90;;;;;;5066382;28;20467;-81
2022/03/06 12:17:31;;;;;;;24.00;15.20;;;11.00;2.80;;;;;;5067101;28;20480;-81
2022/03/06 12:20:41;;;;;;;28.13;16.53;;;10.70;1.00;;;;;;5066629;28;20456;-82
2022/03/06 12:23:21;;;;;;;22.85;16.42;;;10.50;2.00;;;;;;5071202;28;20457;-82
2022/03/06 12:25:52;;;;;;;16.17;11.43;;;10.10;1.10;;;;;;5069183;28;20209;-81